createdAt,value
2022-12-18T00:01:37.786Z,-1.88
2022-12-18T00:04:12.992Z,-1.98
2022-12-18T00:06:43.721Z,-1.99
2022-12-18T00:09:58.053Z,-1.95
2022-12-18T00:12:30.047Z,-1.88
2022-12-18T00:15:02.171Z,-1.85
2022-12-18T00:17:32.733Z,-1.83
2022-12-18T00:20:03.334Z,-1.82
2022-12-18T00:22:33.917Z,-1.82
2022-12-18T00:25:04.801Z,-1.86
2022-12-18T00:27:35.752Z,-1.89
2022-12-18T00:30:15.779Z,-1.91
2022-12-18T00:32:46.468Z,-1.93
2022-12-18T00:35:20.590Z,-1.97
2022-12-18T00:37:51.201Z,-1.99
2022-12-18T00:40:21.580Z,-1.98
2022-12-18T00:43:00.840Z,-1.95
2022-12-18T00:45:33.844Z,-1.93
2022-12-18T00:48:04.952Z,-1.91
2022-12-18T00:50:40.260Z,-1.88
2022-12-18T00:53:22.484Z,-1.85
2022-12-18T00:55:53.262Z,-1.83
2022-12-18T00:58:26.702Z,-1.82
2022-12-18T01:01:00.204Z,-1.81
2022-12-18T01:03:31.088Z,-1.83
2022-12-18T01:06:02.144Z,-1.86
2022-12-18T01:08:40.103Z,-1.90
2022-12-18T01:11:16.403Z,-1.96
2022-12-18T01:13:54.996Z,-1.99
2022-12-18T01:16:33.447Z,-2.00
2022-12-18T01:19:09.314Z,-2.03
2022-12-18T01:21:41.418Z,-2.03
2022-12-18T01:24:18.595Z,-2.03
2022-12-18T01:26:49.319Z,-2.03
2022-12-18T01:29:20.121Z,-2.03
2022-12-18T01:31:50.603Z,-2.04
2022-12-18T01:34:21.472Z,-2.06
2022-12-18T01:36:53.532Z,-2.10
2022-12-18T01:39:24.407Z,-2.13
2022-12-18T01:42:06.972Z,-2.15
2022-12-18T01:44:56.535Z,-2.12
2022-12-18T01:47:36.552Z,-2.06
2022-12-18T01:50:11.655Z,-1.98
2022-12-18T01:52:48.654Z,-1.92
2022-12-18T01:55:30.179Z,-1.87
2022-12-18T01:58:03.665Z,-1.89
2022-12-18T02:00:35.394Z,-1.98
2022-12-18T02:03:06.764Z,-2.07
2022-12-18T02:05:49.687Z,-2.18
2022-12-18T02:08:35.801Z,-2.24
2022-12-18T02:11:25.256Z,-2.28
2022-12-18T02:14:24.862Z,-2.32
2022-12-18T02:17:22.158Z,-2.36
2022-12-18T02:20:16.798Z,-2.36
2022-12-18T02:23:21.013Z,-2.32
2022-12-18T02:26:04.274Z,-2.33
2022-12-18T02:28:57.491Z,-2.34
2022-12-18T02:31:33.022Z,-2.31
2022-12-18T02:34:06.132Z,-2.32
2022-12-18T02:36:45.110Z,-2.29
2022-12-18T02:39:18.662Z,-2.26
2022-12-18T02:42:29.441Z,-2.21
2022-12-18T02:46:38.140Z,-2.12
2022-12-18T02:49:40.137Z,-2.11
2022-12-18T02:52:32.279Z,-2.10
2022-12-18T02:55:46.221Z,-2.14
2022-12-18T02:58:36.072Z,-2.20
2022-12-18T03:01:22.797Z,-2.25
2022-12-18T03:04:05.350Z,-2.29
2022-12-18T03:06:47.670Z,-2.27
2022-12-18T03:09:52.802Z,-2.24
2022-12-18T03:12:39.090Z,-2.20
2022-12-18T03:15:23.500Z,-2.15
2022-12-18T03:18:22.427Z,-2.13
2022-12-18T03:21:01.762Z,-2.15
2022-12-18T03:23:38.143Z,-2.16
2022-12-18T03:26:13.748Z,-2.14
2022-12-18T03:29:01.514Z,-2.17
2022-12-18T03:31:36.124Z,-2.21
2022-12-18T03:34:26.382Z,-2.26
2022-12-18T03:36:59.282Z,-2.30
2022-12-18T03:39:32.910Z,-2.29
2022-12-18T03:42:25.781Z,-2.28
2022-12-18T03:45:22.771Z,-2.18
2022-12-18T03:48:09.754Z,-2.14
2022-12-18T03:51:19.272Z,-2.09
2022-12-18T03:54:04.412Z,-2.05
2022-12-18T03:56:47.257Z,-2.00
2022-12-18T03:59:20.702Z,-1.97
2022-12-18T04:01:55.133Z,-1.96
2022-12-18T04:04:34.135Z,-1.93
2022-12-18T04:07:07.369Z,-1.92
2022-12-18T04:09:50.161Z,-1.86
2022-12-18T04:12:22.065Z,-1.82
2022-12-18T04:14:52.714Z,-1.81
2022-12-18T04:17:23.892Z,-1.81
2022-12-18T04:19:54.678Z,-1.81
2022-12-18T04:22:26.775Z,-1.81
2022-12-18T04:25:01.829Z,-1.84
2022-12-18T04:27:38.948Z,-1.84
2022-12-18T04:30:10.034Z,-1.85
2022-12-18T04:32:40.741Z,-1.86
2022-12-18T04:35:13.310Z,-1.85
2022-12-18T04:37:48.745Z,-1.81
2022-12-18T04:40:21.533Z,-1.79
2022-12-18T04:42:52.701Z,-1.81
2022-12-18T04:45:23.285Z,-1.86
2022-12-18T04:47:53.720Z,-1.93
2022-12-18T04:50:24.493Z,-2.01
2022-12-18T04:52:55.242Z,-2.09
2022-12-18T04:55:25.690Z,-2.17
2022-12-18T04:57:56.626Z,-2.24
2022-12-18T05:00:27.511Z,-2.31
2022-12-18T05:02:58.534Z,-2.41
2022-12-18T05:05:29.983Z,-2.46
2022-12-18T05:08:00.462Z,-2.47
2022-12-18T05:10:38.500Z,-2.45
2022-12-18T05:13:10.224Z,-2.44
2022-12-18T05:15:40.736Z,-2.40
2022-12-18T05:19:22.345Z,-2.36
2022-12-18T05:21:55.984Z,-2.32
2022-12-18T05:24:34.180Z,-2.31
2022-12-18T05:27:42.207Z,-2.31
2022-12-18T05:30:38.078Z,-2.34
2022-12-18T05:33:17.594Z,-2.40
2022-12-18T05:36:13.051Z,-2.43
2022-12-18T05:38:57.565Z,-2.42
2022-12-18T05:41:45.494Z,-2.44
2022-12-18T05:44:40.585Z,-2.41
2022-12-18T05:47:34.126Z,-2.42
2022-12-18T05:51:14.312Z,-2.42
2022-12-18T05:53:14.372Z,-2.46
2022-12-18T05:56:25.471Z,-2.48
2022-12-18T05:59:21.816Z,-2.48
2022-12-18T06:02:24.642Z,-2.48
2022-12-18T06:04:59.992Z,-2.49
2022-12-18T06:07:36.874Z,-2.50
2022-12-18T06:10:19.562Z,-2.50
2022-12-18T06:12:50.961Z,-2.45
2022-12-18T06:15:23.142Z,-2.42
2022-12-18T06:17:56.320Z,-2.39
2022-12-18T06:20:44.024Z,-2.36
2022-12-18T06:23:42.744Z,-2.35
2022-12-18T06:26:30.351Z,-2.34
2022-12-18T06:29:18.602Z,-2.35
2022-12-18T06:32:04.469Z,-2.35
2022-12-18T06:35:23.810Z,-2.37
2022-12-18T06:38:36.366Z,-2.39
2022-12-18T06:41:52.915Z,-2.43
2022-12-18T06:45:26.665Z,-2.49
2022-12-18T06:51:28.439Z,-2.56
2022-12-18T06:54:01.613Z,-2.59
2022-12-18T06:57:05.448Z,-2.58
2022-12-18T06:59:57.983Z,-2.56
2022-12-18T07:02:32.887Z,-2.52
2022-12-18T07:05:11.384Z,-2.49
2022-12-18T07:07:45.272Z,-2.47
2022-12-18T07:10:29.380Z,-2.45
2022-12-18T07:13:01.257Z,-2.45
2022-12-18T07:15:31.848Z,-2.46
2022-12-18T07:18:02.373Z,-2.50
2022-12-18T07:20:32.744Z,-2.58
2022-12-18T07:23:08.613Z,-2.70
2022-12-18T07:25:39.821Z,-2.81
2022-12-18T07:28:14.233Z,-2.95
2022-12-18T07:30:48.200Z,-3.06
2022-12-18T07:33:19.522Z,-3.12
2022-12-18T07:35:50.372Z,-3.17
2022-12-18T07:38:23.034Z,-3.15
2022-12-18T07:40:53.760Z,-3.10
2022-12-18T07:43:24.150Z,-3.08
2022-12-18T07:45:54.657Z,-3.03
2022-12-18T07:48:25.478Z,-2.99
2022-12-18T07:50:55.899Z,-2.97
2022-12-18T07:53:26.387Z,-2.93
2022-12-18T07:56:25.987Z,-2.92
2022-12-18T07:58:52.244Z,-2.90
2022-12-18T08:01:31.712Z,-2.90
2022-12-18T08:04:02.484Z,-2.92
2022-12-18T08:06:32.774Z,-2.92
2022-12-18T08:09:03.549Z,-2.98
2022-12-18T08:11:34.332Z,-3.03
2022-12-18T08:14:08.281Z,-3.08
2022-12-18T08:16:39.228Z,-3.10
2022-12-18T08:19:09.593Z,-3.08
2022-12-18T08:21:40.023Z,-3.05
2022-12-18T08:24:12.116Z,-3.03
2022-12-18T08:26:51.824Z,-2.97
2022-12-18T08:29:33.379Z,-2.91
2022-12-18T08:32:03.894Z,-2.86
2022-12-18T08:34:34.323Z,-2.82
2022-12-18T08:37:05.000Z,-2.82
2022-12-18T08:39:35.919Z,-2.81
2022-12-18T08:42:28.723Z,-2.78
2022-12-18T08:45:00.641Z,-2.75
2022-12-18T08:47:31.537Z,-2.75
2022-12-18T08:50:01.936Z,-2.77
2022-12-18T08:52:36.356Z,-2.79
2022-12-18T08:55:07.661Z,-2.83
2022-12-18T08:57:38.096Z,-2.80
2022-12-18T09:00:09.542Z,-2.78
2022-12-18T09:02:40.310Z,-2.77
2022-12-18T09:05:11.802Z,-2.74
2022-12-18T09:07:43.386Z,-2.72
2022-12-18T09:10:13.966Z,-2.69
2022-12-18T09:12:44.441Z,-2.66
2022-12-18T09:15:15.001Z,-2.62
2022-12-18T09:17:45.402Z,-2.59
2022-12-18T09:20:17.641Z,-2.60
2022-12-18T09:22:49.010Z,-2.62
2022-12-18T09:25:19.730Z,-2.61
2022-12-18T09:27:50.808Z,-2.64
2022-12-18T09:30:21.441Z,-2.69
2022-12-18T09:32:52.065Z,-2.72
2022-12-18T09:35:22.628Z,-2.73
2022-12-18T09:37:52.912Z,-2.71
2022-12-18T09:40:27.830Z,-2.66
2022-12-18T09:43:07.335Z,-2.61
2022-12-18T09:45:47.653Z,-2.53
2022-12-18T09:48:33.671Z,-2.44
2022-12-18T09:51:13.979Z,-2.40
2022-12-18T09:53:53.615Z,-2.33
2022-12-18T09:56:29.201Z,-2.30
2022-12-18T09:59:04.974Z,-2.27
2022-12-18T10:01:43.968Z,-2.24
2022-12-18T10:04:15.166Z,-2.24
2022-12-18T10:06:56.913Z,-2.27
2022-12-18T10:09:39.743Z,-2.32
2022-12-18T10:17:18.123Z,-2.51
2022-12-18T10:19:53.698Z,-2.54
2022-12-18T10:22:48.984Z,-2.56
2022-12-18T10:25:30.849Z,-2.55
2022-12-18T10:28:13.062Z,-2.53
2022-12-18T10:30:45.326Z,-2.51
2022-12-18T10:33:24.724Z,-2.54
2022-12-18T10:35:56.174Z,-2.56
2022-12-18T10:38:34.760Z,-2.57
2022-12-18T10:42:38.153Z,-2.57
2022-12-18T10:45:18.156Z,-2.52
2022-12-18T10:47:50.274Z,-2.51
2022-12-18T10:50:35.918Z,-2.51
2022-12-18T10:53:23.169Z,-2.59
2022-12-18T10:55:57.923Z,-2.64
2022-12-18T10:58:32.985Z,-2.63
2022-12-18T11:01:15.492Z,-2.63
2022-12-18T11:04:02.723Z,-2.67
2022-12-18T11:06:36.244Z,-2.69
2022-12-18T11:09:27.302Z,-2.67
2022-12-18T11:12:00.581Z,-2.64
2022-12-18T11:14:35.394Z,-2.58
2022-12-18T11:20:03.755Z,-2.51
2022-12-18T11:28:38.703Z,-2.67
2022-12-18T11:31:20.915Z,-2.68
2022-12-18T11:36:53.510Z,-2.74
2022-12-18T11:39:55.833Z,-2.79
2022-12-18T11:43:05.604Z,-2.85
2022-12-18T11:46:31.486Z,-2.85
2022-12-18T11:49:11.199Z,-2.84
2022-12-18T11:52:01.911Z,-2.83
2022-12-18T11:54:32.764Z,-2.82
2022-12-18T11:57:37.275Z,-2.83
2022-12-18T12:00:07.920Z,-2.85
2022-12-18T12:03:04.837Z,-2.86
2022-12-18T12:05:44.719Z,-2.87
2022-12-18T12:09:19.108Z,-2.81
2022-12-18T12:12:49.008Z,-2.81
2022-12-18T12:15:28.697Z,-2.80
2022-12-18T12:18:25.208Z,-2.80
2022-12-18T12:21:09.309Z,-2.80
2022-12-18T12:24:03.880Z,-2.82
2022-12-18T12:26:52.472Z,-2.82
2022-12-18T12:29:53.752Z,-2.81
2022-12-18T12:32:37.268Z,-2.78
2022-12-18T12:35:19.543Z,-2.73
2022-12-18T12:38:06.461Z,-2.66
2022-12-18T12:40:56.606Z,-2.61
2022-12-18T12:43:34.663Z,-2.58
2022-12-18T12:46:11.880Z,-2.62
2022-12-18T12:49:02.480Z,-2.65
2022-12-18T12:51:45.450Z,-2.65
2022-12-18T12:54:26.303Z,-2.69
2022-12-18T12:57:12.639Z,-2.72
2022-12-18T12:59:52.999Z,-2.74
2022-12-18T13:02:35.613Z,-2.75
2022-12-18T13:05:27.522Z,-2.71
2022-12-18T13:08:10.517Z,-2.68
2022-12-18T13:10:45.389Z,-2.64
2022-12-18T13:13:24.279Z,-2.64
2022-12-18T13:16:12.009Z,-2.60
2022-12-18T13:18:53.055Z,-2.60
2022-12-18T13:21:30.270Z,-2.57
2022-12-18T13:24:24.608Z,-2.52
2022-12-18T13:26:55.361Z,-2.52
2022-12-18T13:29:46.869Z,-2.53
2022-12-18T13:32:26.751Z,-2.51
2022-12-18T13:35:33.483Z,-2.51
2022-12-18T13:38:04.234Z,-2.61
2022-12-18T13:41:40.237Z,-2.66
2022-12-18T13:44:25.120Z,-2.65
2022-12-18T13:46:56.473Z,-2.62
2022-12-18T13:49:47.474Z,-2.56
2022-12-18T13:52:24.513Z,-2.29
2022-12-18T13:54:57.962Z,-2.16
2022-12-18T13:57:32.622Z,-2.13
2022-12-18T14:00:33.531Z,-2.16
2022-12-18T14:03:04.347Z,-2.18
2022-12-18T14:05:40.159Z,-2.19
2022-12-18T14:08:16.670Z,-2.26
2022-12-18T14:10:51.051Z,-2.37
2022-12-18T14:13:33.190Z,-2.45
2022-12-18T14:16:06.616Z,-2.51
2022-12-18T14:18:58.513Z,-2.58
2022-12-18T14:22:10.590Z,-2.60
2022-12-18T14:24:41.145Z,-2.63
2022-12-18T14:27:25.517Z,-2.67
2022-12-18T14:29:55.784Z,-2.66
2022-12-18T14:32:27.544Z,-2.64
2022-12-18T14:34:58.466Z,-2.67
2022-12-18T14:37:30.261Z,-2.69
2022-12-18T14:40:10.426Z,-2.69
2022-12-18T14:42:41.551Z,-2.70
2022-12-18T14:45:48.390Z,-2.74
2022-12-18T14:48:24.743Z,-2.75
2022-12-18T14:51:06.426Z,-2.75
2022-12-18T14:53:54.744Z,-2.76
2022-12-18T14:56:27.471Z,-2.76
2022-12-18T14:59:01.954Z,-2.72
2022-12-18T15:01:38.456Z,-2.66
2022-12-18T15:04:30.139Z,-2.63
2022-12-18T15:07:19.293Z,-2.63
2022-12-18T15:10:16.832Z,-2.62
2022-12-18T15:12:59.756Z,-2.63
2022-12-18T15:15:39.146Z,-2.70
2022-12-18T15:18:13.646Z,-2.76
2022-12-18T15:20:47.846Z,-2.76
2022-12-18T15:23:27.187Z,-2.77
2022-12-18T15:26:16.421Z,-2.81
2022-12-18T15:29:01.943Z,-2.84
2022-12-18T15:31:37.083Z,-2.86
2022-12-18T15:34:28.087Z,-2.88
2022-12-18T15:37:00.160Z,-2.91
2022-12-18T15:39:32.032Z,-2.95
2022-12-18T15:42:23.266Z,-2.94
2022-12-18T15:44:57.609Z,-2.91
2022-12-18T15:47:32.534Z,-2.87
2022-12-18T15:50:06.203Z,-2.81
2022-12-18T15:52:53.503Z,-2.77
2022-12-18T15:55:43.970Z,-2.74
2022-12-18T15:58:19.308Z,-2.76
2022-12-18T16:00:51.852Z,-2.81
2022-12-18T16:03:25.412Z,-2.84
2022-12-18T16:06:04.242Z,-2.88
2022-12-18T16:08:37.301Z,-3.00
2022-12-18T16:11:39.432Z,-3.08
2022-12-18T16:14:26.308Z,-3.09
2022-12-18T16:17:03.479Z,-3.11
2022-12-18T16:19:34.932Z,-3.12
2022-12-18T16:22:09.325Z,-3.09
2022-12-18T16:24:43.795Z,-3.05
2022-12-18T16:27:16.560Z,-3.03
2022-12-18T16:29:50.377Z,-3.01
2022-12-18T16:32:24.602Z,-2.97
2022-12-18T16:35:03.235Z,-2.95
2022-12-18T16:37:35.740Z,-2.94
2022-12-18T16:40:10.430Z,-2.99
2022-12-18T16:42:44.167Z,-3.01
2022-12-18T16:45:21.483Z,-3.01
2022-12-18T16:47:55.265Z,-3.02
2022-12-18T16:50:27.508Z,-3.04
2022-12-18T16:52:59.445Z,-3.05
2022-12-18T16:55:31.604Z,-3.09
2022-12-18T16:58:10.357Z,-3.19
2022-12-18T17:00:44.166Z,-3.31
2022-12-18T17:03:17.159Z,-3.40
2022-12-18T17:05:53.108Z,-3.50
2022-12-18T17:08:26.201Z,-3.53
2022-12-18T17:10:59.636Z,-3.56
2022-12-18T17:13:35.390Z,-3.52
2022-12-18T17:16:12.609Z,-3.47
2022-12-18T17:18:47.591Z,-3.46
2022-12-18T17:21:19.806Z,-3.43
2022-12-18T17:28:24.460Z,-3.47
2022-12-18T17:30:57.612Z,-3.52
2022-12-18T17:38:35.740Z,-3.59
2022-12-18T17:41:10.282Z,-3.64
2022-12-18T17:49:29.785Z,-3.78
2022-12-18T17:52:02.362Z,-3.87
2022-12-18T17:54:34.239Z,-3.91
2022-12-18T17:57:07.322Z,-3.88
2022-12-18T17:59:40.475Z,-3.88
2022-12-18T18:02:15.291Z,-3.89
2022-12-18T18:04:48.600Z,-3.88
2022-12-18T18:07:20.986Z,-3.85
2022-12-18T18:09:53.419Z,-3.84
2022-12-18T18:12:47.490Z,-3.81
2022-12-18T18:15:58.840Z,-3.83
2022-12-18T18:18:33.081Z,-3.83
2022-12-18T18:21:10.381Z,-3.85
2022-12-18T18:23:43.496Z,-3.86
2022-12-18T18:26:24.272Z,-3.89
2022-12-18T18:29:05.130Z,-3.93
2022-12-18T18:31:41.589Z,-3.95
2022-12-18T18:34:24.933Z,-4.01
2022-12-18T18:36:58.246Z,-4.05
2022-12-18T18:39:32.779Z,-4.06
2022-12-18T18:42:05.923Z,-4.02
2022-12-18T18:44:39.121Z,-3.99
2022-12-18T18:47:11.739Z,-3.99
2022-12-18T18:49:44.360Z,-3.96
2022-12-18T18:52:17.951Z,-3.92
2022-12-18T18:55:12.207Z,-3.84
2022-12-18T18:57:45.035Z,-3.82
2022-12-18T19:00:22.078Z,-3.83
2022-12-18T19:03:02.093Z,-3.85
2022-12-18T19:05:35.844Z,-3.93
2022-12-18T19:08:08.371Z,-4.01
2022-12-18T19:10:44.712Z,-4.07
2022-12-18T19:13:25.284Z,-4.10
2022-12-18T19:16:05.284Z,-4.12
2022-12-18T19:18:39.620Z,-4.17
2022-12-18T19:21:16.471Z,-4.20
2022-12-18T19:23:49.731Z,-4.23
2022-12-18T19:26:27.842Z,-4.24
2022-12-18T19:29:12.838Z,-4.24
2022-12-18T19:31:48.887Z,-4.21
2022-12-18T19:34:24.934Z,-4.18
2022-12-18T19:36:59.928Z,-4.17
2022-12-18T19:39:32.002Z,-4.15
2022-12-18T19:42:03.675Z,-4.11
2022-12-18T19:44:36.060Z,-4.08
2022-12-18T19:47:07.780Z,-4.07
2022-12-18T19:49:41.250Z,-4.12
2022-12-18T19:52:15.471Z,-4.14
2022-12-18T19:54:48.215Z,-4.18
2022-12-18T19:57:24.704Z,-4.22
2022-12-18T19:59:58.324Z,-4.26
2022-12-18T20:02:30.580Z,-4.29
2022-12-18T20:05:02.764Z,-4.31
2022-12-18T20:07:38.494Z,-4.32
2022-12-18T20:10:17.465Z,-4.29
2022-12-18T20:12:52.415Z,-4.25
2022-12-18T20:15:26.562Z,-4.19
2022-12-18T20:18:05.351Z,-4.14
2022-12-18T20:20:36.865Z,-4.10
2022-12-18T20:23:11.317Z,-4.15
2022-12-18T20:25:43.830Z,-4.22
2022-12-18T20:28:20.114Z,-4.24
2022-12-18T20:30:53.616Z,-4.27
2022-12-18T20:33:25.651Z,-4.32
2022-12-18T20:36:03.064Z,-4.35
2022-12-18T20:38:35.531Z,-4.39
2022-12-18T20:41:20.951Z,-4.46
2022-12-18T20:43:53.421Z,-4.52
2022-12-18T20:46:24.974Z,-4.56
2022-12-18T20:49:02.514Z,-4.59
2022-12-18T20:51:35.815Z,-4.65
2022-12-18T20:54:11.637Z,-4.68
2022-12-18T20:56:43.893Z,-4.70
2022-12-18T20:59:15.095Z,-4.69
2022-12-18T21:01:48.731Z,-4.68
2022-12-18T21:04:21.086Z,-4.66
2022-12-18T21:07:00.465Z,-4.64
2022-12-18T21:09:38.312Z,-4.62
2022-12-18T21:12:40.562Z,-4.63
2022-12-18T21:15:25.293Z,-4.68
2022-12-18T21:17:58.773Z,-4.72
2022-12-18T21:20:29.980Z,-4.78
2022-12-18T21:23:12.013Z,-4.79
2022-12-18T21:25:49.812Z,-4.81
2022-12-18T21:28:26.143Z,-4.81
2022-12-18T21:30:58.844Z,-4.84
2022-12-18T21:33:29.551Z,-4.87
2022-12-18T21:36:00.026Z,-4.90
2022-12-18T21:38:30.488Z,-4.92
2022-12-18T21:41:01.440Z,-4.92
2022-12-18T21:44:03.483Z,-4.88
2022-12-18T21:46:35.114Z,-4.82
2022-12-18T21:49:07.451Z,-4.77
2022-12-18T21:51:39.331Z,-4.74
2022-12-18T21:54:11.340Z,-4.70
2022-12-18T21:57:14.760Z,-4.68
2022-12-18T21:59:45.622Z,-4.70
2022-12-18T22:02:18.884Z,-4.73
2022-12-18T22:04:50.302Z,-4.74
2022-12-18T22:07:21.091Z,-4.75
2022-12-18T22:09:53.027Z,-4.77
2022-12-18T22:12:43.130Z,-4.80
2022-12-18T22:15:16.294Z,-4.83
2022-12-18T22:18:00.352Z,-4.84
2022-12-18T22:20:32.495Z,-4.87
2022-12-18T22:24:09.671Z,-4.87
2022-12-18T22:26:40.528Z,-4.82
2022-12-18T22:29:34.360Z,-4.79
2022-12-18T22:32:07.361Z,-4.78
2022-12-18T22:34:40.258Z,-4.75
2022-12-18T22:37:13.394Z,-4.71
2022-12-18T22:39:45.443Z,-4.69
2022-12-18T22:42:16.164Z,-4.65
2022-12-18T22:44:46.886Z,-4.62
2022-12-18T22:47:17.584Z,-4.61
2022-12-18T22:49:49.413Z,-4.57
2022-12-18T22:52:19.868Z,-4.56
2022-12-18T22:54:54.782Z,-4.56
2022-12-18T22:57:25.854Z,-4.62
2022-12-18T22:59:56.280Z,-4.66
2022-12-18T23:02:27.076Z,-4.67
2022-12-18T23:04:57.947Z,-4.70
2022-12-18T23:07:28.624Z,-4.69
2022-12-18T23:10:00.857Z,-4.64
2022-12-18T23:12:33.192Z,-4.59
2022-12-18T23:15:07.139Z,-4.57
2022-12-18T23:17:40.862Z,-4.57
2022-12-18T23:20:11.860Z,-4.59
2022-12-18T23:22:42.121Z,-4.61
2022-12-18T23:25:12.770Z,-4.64
2022-12-18T23:27:43.334Z,-4.66
2022-12-18T23:30:17.024Z,-4.67
2022-12-18T23:32:47.623Z,-4.68
2022-12-18T23:35:19.063Z,-4.68
2022-12-18T23:38:05.446Z,-4.73
2022-12-18T23:40:35.793Z,-4.79
2022-12-18T23:43:06.254Z,-4.82
2022-12-18T23:45:39.824Z,-4.89
2022-12-18T23:49:16.473Z,-4.94
2022-12-18T23:51:46.969Z,-4.97
2022-12-18T23:54:17.564Z,-4.99
2022-12-18T23:56:57.905Z,-5.00
2022-12-18T23:59:28.135Z,-4.98
